Time;durP1;ratioP1;P1;durP2;ratioP2;P2;SDS_P1;SDS_P2;PMS_P1;PMS_P2;Temp;Humidity;BMP_temperature;BMP_pressure;BME280_temperature;BME280_humidity;BME280_pressure;Samples;Min_cycle;Max_cycle;Signal;HPM_P1;HPM_P2
2022/09/14 00:00:27;;;;;;;15.95;4.63;;;;;;;;;;4773425;30;20054;-74
2022/09/14 00:02:54;;;;;;;19.23;5.32;;;;;;;;;;4773696;30;20134;-74
2022/09/14 00:05:20;;;;;;;16.30;5.55;;;;;;;;;;4773409;30;20134;-75
2022/09/14 00:07:46;;;;;;;17.52;5.90;;;;;;;;;;4773287;30;20130;-75
2022/09/14 00:10:12;;;;;;;15.45;5.60;;;;;;;;;;4773187;30;20535;-74
2022/09/14 00:12:38;;;;;;;13.80;5.20;;;;;;;;;;4773531;30;20059;-75
2022/09/14 00:15:06;;;;;;;15.75;5.07;;;;;;;;;;4772794;30;20381;-74
2022/09/14 00:17:32;;;;;;;16.23;4.95;;;;;;;;;;4773403;30;20075;-74
2022/09/14 00:20:00;;;;;;;16.90;4.82;;;;;;;;;;4773106;30;20059;-75
2022/09/14 00:22:26;;;;;;;13.80;5.28;;;;;;;;;;4772957;30;20043;-75
2022/09/14 00:24:52;;;;;;;9.13;4.75;;;;;;;;;;4773038;30;20074;-75
2022/09/14 00:27:18;;;;;;;12.75;5.00;;;;;;;;;;4772732;30;20099;-75
2022/09/14 00:29:47;;;;;;;15.95;5.80;;;;;;;;;;4772669;30;20516;-75
2022/09/14 00:32:13;;;;;;;14.10;5.32;;;;;;;;;;4773373;30;20106;-75
2022/09/14 00:34:39;;;;;;;12.32;5.40;;;;;;;;;;4772765;30;20147;-74
2022/09/14 00:37:05;;;;;;;16.00;4.82;;;;;;;;;;4772655;30;20044;-74
2022/09/14 00:39:31;;;;;;;16.92;5.32;;;;;;;;;;4772745;30;20557;-75
2022/09/14 00:41:58;;;;;;;18.80;5.55;;;;;;;;;;4772760;30;20052;-75
2022/09/14 00:44:24;;;;;;;12.93;4.28;;;;;;;;;;4772151;30;20067;-75
2022/09/14 00:46:51;;;;;;;15.05;5.75;;;;;;;;;;4772856;30;20076;-74
2022/09/14 00:49:19;;;;;;;14.07;5.07;;;;;;;;;;4772776;30;20047;-75
2022/09/14 00:51:58;;;;;;;10.02;5.07;;;;;;;;;;4772693;30;20051;-74
2022/09/14 00:54:25;;;;;;;11.60;5.10;;;;;;;;;;4772555;30;20062;-74
2022/09/14 00:56:51;;;;;;;14.05;5.55;;;;;;;;;;4772718;30;20535;-74
2022/09/14 00:59:21;;;;;;;18.73;6.03;;;;;;;;;;4772319;30;20113;-75
2022/09/14 01:01:47;;;;;;;16.05;6.18;;;;;;;;;;4772743;30;20054;-74
2022/09/14 01:04:14;;;;;;;14.02;4.88;;;;;;;;;;4772105;30;20055;-74
2022/09/14 01:06:52;;;;;;;18.02;5.75;;;;;;;;;;4772183;30;20599;-75
2022/09/14 01:09:33;;;;;;;16.90;5.60;;;;;;;;;;4772249;30;20089;-74
2022/09/14 01:12:09;;;;;;;16.42;5.93;;;;;;;;;;4771693;30;20044;-74
2022/09/14 01:14:50;;;;;;;15.25;5.35;;;;;;;;;;4772224;30;20070;-75
2022/09/14 01:17:16;;;;;;;;;;;;;;;;;;4772653;30;20051;-75
2022/09/14 01:19:45;;;;;;;14.57;5.38;;;;;;;;;;4771814;30;19914;-74
2022/09/14 01:22:18;;;;;;;19.70;6.43;;;;;;;;;;4771877;30;20082;-75
2022/09/14 01:24:46;;;;;;;12.90;6.05;;;;;;;;;;4771498;30;20404;-74
2022/09/14 01:27:26;;;;;;;16.88;5.32;;;;;;;;;;4771963;30;20424;-74
2022/09/14 01:30:12;;;;;;;10.13;4.77;;;;;;;;;;4771981;30;20051;-74
2022/09/14 01:32:50;;;;;;;10.45;5.00;;;;;;;;;;4772482;30;20079;-74
2022/09/14 01:35:25;;;;;;;15.55;5.07;;;;;;;;;;4771929;30;20090;-75
2022/09/14 01:37:57;;;;;;;15.07;5.43;;;;;;;;;;4771503;30;20075;-74
2022/09/14 01:40:29;;;;;;;14.20;5.18;;;;;;;;;;4771943;30;20101;-75
2022/09/14 01:42:58;;;;;;;12.55;5.40;;;;;;;;;;4772102;30;20078;-75
2022/09/14 01:45:25;;;;;;;10.75;4.80;;;;;;;;;;4771980;30;20059;-74
2022/09/14 01:47:56;;;;;;;11.77;4.88;;;;;;;;;;4772254;30;20043;-75
2022/09/14 01:50:30;;;;;;;10.52;5.20;;;;;;;;;;4771337;30;20459;-75
2022/09/14 01:53:05;;;;;;;13.88;4.60;;;;;;;;;;4771620;30;20047;-74
2022/09/14 01:55:53;;;;;;;11.73;5.00;;;;;;;;;;4771361;30;20066;-74
2022/09/14 01:58:29;;;;;;;21.55;6.55;;;;;;;;;;4771674;30;20051;-75
2022/09/14 02:00:56;;;;;;;16.52;6.70;;;;;;;;;;4771604;30;20040;-75
2022/09/14 02:03:26;;;;;;;17.20;7.85;;;;;;;;;;4771853;30;20055;-75
2022/09/14 02:06:11;;;;;;;18.15;6.97;;;;;;;;;;4771601;30;20059;-75
2022/09/14 02:08:37;;;;;;;13.60;4.60;;;;;;;;;;4771349;30;20531;-75
2022/09/14 02:11:03;;;;;;;15.73;6.55;;;;;;;;;;4770696;30;20047;-75
2022/09/14 02:13:30;;;;;;;15.63;5.60;;;;;;;;;;4771632;30;20051;-75
2022/09/14 02:15:56;;;;;;;17.95;6.60;;;;;;;;;;4771359;30;20052;-75
2022/09/14 02:18:22;;;;;;;13.95;5.28;;;;;;;;;;4771606;30;20161;-75
2022/09/14 02:20:51;;;;;;;19.63;7.28;;;;;;;;;;4771421;30;20044;-75
2022/09/14 02:23:17;;;;;;;14.73;6.10;;;;;;;;;;4771281;30;20052;-75
2022/09/14 02:25:44;;;;;;;15.52;5.60;;;;;;;;;;4771159;30;20132;-75
2022/09/14 02:28:10;;;;;;;17.55;5.90;;;;;;;;;;4771302;30;20488;-75
2022/09/14 02:30:59;;;;;;;19.25;6.70;;;;;;;;;;4771268;30;20047;-75
2022/09/14 02:33:31;;;;;;;16.63;6.32;;;;;;;;;;4769857;30;20052;-75
2022/09/14 02:36:00;;;;;;;15.05;5.82;;;;;;;;;;4769930;30;20455;-75
2022/09/14 02:38:28;;;;;;;12.93;5.18;;;;;;;;;;4770764;30;20507;-75
2022/09/14 02:41:09;;;;;;;11.27;5.85;;;;;;;;;;4771174;30;20043;-75
2022/09/14 02:43:35;;;;;;;23.77;6.47;;;;;;;;;;4771159;30;20504;-75
2022/09/14 02:46:01;;;;;;;15.18;5.80;;;;;;;;;;4771487;30;20087;-75
2022/09/14 02:48:50;;;;;;;19.83;6.90;;;;;;;;;;4771182;30;20044;-75
2022/09/14 02:51:22;;;;;;;14.82;6.70;;;;;;;;;;4770597;30;20052;-75
2022/09/14 02:53:51;;;;;;;17.42;6.60;;;;;;;;;;4771642;30;20561;-75
2022/09/14 02:56:18;;;;;;;15.10;6.43;;;;;;;;;;4771407;30;20128;-75
2022/09/14 02:58:45;;;;;;;12.85;6.80;;;;;;;;;;4771214;30;20059;-75
2022/09/14 03:01:13;;;;;;;15.15;7.07;;;;;;;;;;4771904;30;20043;-75
2022/09/14 03:03:39;;;;;;;16.15;7.40;;;;;;;;;;4771590;30;20047;-75
2022/09/14 03:06:05;;;;;;;17.92;7.72;;;;;;;;;;4771056;30;20124;-75
2022/09/14 03:08:32;;;;;;;17.27;7.25;;;;;;;;;;4771114;30;20142;-75
2022/09/14 03:10:58;;;;;;;20.40;7.68;;;;;;;;;;4770992;30;20047;-75
2022/09/14 03:13:24;;;;;;;18.02;7.55;;;;;;;;;;4771281;30;20060;-75
2022/09/14 03:15:50;;;;;;;17.85;7.60;;;;;;;;;;4771204;30;20066;-75
2022/09/14 03:18:17;;;;;;;17.75;7.85;;;;;;;;;;4771932;30;20063;-75
2022/09/14 03:20:43;;;;;;;17.17;7.75;;;;;;;;;;4770992;30;20550;-75
2022/09/14 03:23:10;;;;;;;22.42;8.73;;;;;;;;;;4772185;30;20072;-75
2022/09/14 03:25:40;;;;;;;18.20;8.50;;;;;;;;;;4774264;30;20146;-75
2022/09/14 03:28:07;;;;;;;23.48;9.10;;;;;;;;;;4774535;30;20043;-75
2022/09/14 03:30:33;;;;;;;19.77;9.32;;;;;;;;;;4774223;30;20147;-75
2022/09/14 03:32:59;;;;;;;18.85;8.52;;;;;;;;;;4774460;30;20561;-75
2022/09/14 03:35:27;;;;;;;17.33;8.10;;;;;;;;;;4774068;30;20189;-75
2022/09/14 03:37:53;;;;;;;17.85;9.85;;;;;;;;;;4774107;30;20500;-75
2022/09/14 03:40:19;;;;;;;14.63;9.50;;;;;;;;;;4773796;30;20051;-74
2022/09/14 03:42:46;;;;;;;19.83;9.52;;;;;;;;;;4774528;30;20052;-75
2022/09/14 03:45:13;;;;;;;18.83;9.50;;;;;;;;;;4773817;30;20504;-75
2022/09/14 03:47:40;;;;;;;18.73;7.40;;;;;;;;;;4773663;30;20508;-75
2022/09/14 03:50:07;;;;;;;17.63;6.72;;;;;;;;;;4773644;30;20500;-75
2022/09/14 03:52:33;;;;;;;13.15;6.43;;;;;;;;;;4773490;30;20055;-75
2022/09/14 03:55:00;;;;;;;16.90;6.93;;;;;;;;;;4773228;30;20101;-75
2022/09/14 03:57:26;;;;;;;13.50;7.20;;;;;;;;;;4772456;30;20516;-76
2022/09/14 03:59:52;;;;;;;19.95;6.68;;;;;;;;;;4773444;30;20044;-76
2022/09/14 04:02:18;;;;;;;20.13;7.22;;;;;;;;;;4773438;30;20047;-76
2022/09/14 04:04:47;;;;;;;16.15;7.10;;;;;;;;;;4773256;30;20054;-76
2022/09/14 04:07:14;;;;;;;12.95;5.43;;;;;;;;;;4773451;30;20042;-75
2022/09/14 04:09:40;;;;;;;10.27;4.72;;;;;;;;;;4773309;30;20051;-76
2022/09/14 04:12:06;;;;;;;12.85;3.97;;;;;;;;;;4773122;30;20048;-76
2022/09/14 04:14:33;;;;;;;12.95;4.38;;;;;;;;;;4773314;30;20052;-76
2022/09/14 04:16:59;;;;;;;14.15;4.45;;;;;;;;;;4772889;30;20062;-76
2022/09/14 04:19:25;;;;;;;10.95;4.45;;;;;;;;;;4772926;30;20048;-75
2022/09/14 04:21:51;;;;;;;9.45;5.40;;;;;;;;;;4772647;30;20508;-75
2022/09/14 04:24:17;;;;;;;11.63;5.28;;;;;;;;;;4771799;30;20389;-75
2022/09/14 04:26:44;;;;;;;11.00;5.47;;;;;;;;;;4772364;30;20051;-76
2022/09/14 04:29:11;;;;;;;10.73;5.47;;;;;;;;;;4771759;30;20084;-78
2022/09/14 04:31:37;;;;;;;11.57;6.35;;;;;;;;;;4771996;30;20048;-76
2022/09/14 04:34:04;;;;;;;13.90;5.93;;;;;;;;;;4771659;30;20047;-75
2022/09/14 04:36:30;;;;;;;10.15;5.65;;;;;;;;;;4772597;30;20130;-76
2022/09/14 04:38:58;;;;;;;10.65;4.80;;;;;;;;;;4771501;30;20101;-76
2022/09/14 04:41:24;;;;;;;13.32;5.78;;;;;;;;;;4772085;30;20134;-76
2022/09/14 04:43:51;;;;;;;13.93;6.40;;;;;;;;;;4770111;30;20067;-76
2022/09/14 04:46:19;;;;;;;15.13;7.18;;;;;;;;;;4770244;30;20108;-76
2022/09/14 04:48:45;;;;;;;15.13;5.35;;;;;;;;;;4768908;30;20052;-75
2022/09/14 04:51:15;;;;;;;13.23;5.75;;;;;;;;;;4769442;30;20053;-75
2022/09/14 04:53:41;;;;;;;9.17;5.73;;;;;;;;;;4770449;30;20067;-75
2022/09/14 04:56:08;;;;;;;14.05;6.40;;;;;;;;;;4771386;30;20058;-75
2022/09/14 04:58:38;;;;;;;14.15;6.75;;;;;;;;;;4771518;30;20138;-75
2022/09/14 05:01:08;;;;;;;13.27;6.53;;;;;;;;;;4771869;30;20056;-75
2022/09/14 05:03:35;;;;;;;16.67;6.82;;;;;;;;;;4772429;30;20055;-75
2022/09/14 05:06:02;;;;;;;14.98;7.30;;;;;;;;;;4772342;30;20053;-76
2022/09/14 05:08:28;;;;;;;15.98;7.22;;;;;;;;;;4771939;30;20055;-75
2022/09/14 05:10:55;;;;;;;14.95;6.95;;;;;;;;;;4772010;30;20055;-75
2022/09/14 05:13:21;;;;;;;15.18;6.53;;;;;;;;;;4772572;30;20044;-75
2022/09/14 05:15:47;;;;;;;15.10;6.15;;;;;;;;;;4771902;30;20059;-75
2022/09/14 05:18:13;;;;;;;13.73;7.10;;;;;;;;;;4772166;30;20044;-75
2022/09/14 05:20:39;;;;;;;20.33;7.22;;;;;;;;;;4770866;30;20386;-75
2022/09/14 05:23:05;;;;;;;14.30;6.72;;;;;;;;;;4771759;30;20100;-75
2022/09/14 05:25:31;;;;;;;18.98;7.63;;;;;;;;;;4772031;30;20087;-75
2022/09/14 05:27:57;;;;;;;13.82;6.82;;;;;;;;;;4772172;30;20564;-75
2022/09/14 05:30:24;;;;;;;16.73;6.65;;;;;;;;;;4771957;30;20056;-75
2022/09/14 05:32:50;;;;;;;16.42;6.78;;;;;;;;;;4771692;30;20043;-75
2022/09/14 05:35:16;;;;;;;13.93;5.95;;;;;;;;;;4771825;30;20058;-75
2022/09/14 05:37:42;;;;;;;10.20;5.32;;;;;;;;;;4771949;30;20412;-75
2022/09/14 05:40:08;;;;;;;14.65;6.20;;;;;;;;;;4771825;30;20131;-75
2022/09/14 05:42:35;;;;;;;11.18;6.95;;;;;;;;;;4772371;30;20053;-75
2022/09/14 05:45:01;;;;;;;13.20;4.47;;;;;;;;;;4771519;30;20056;-75
2022/09/14 05:47:30;;;;;;;14.77;6.18;;;;;;;;;;4770974;30;20104;-75
2022/09/14 05:49:57;;;;;;;12.38;5.93;;;;;;;;;;4771651;30;20040;-75
2022/09/14 05:52:23;;;;;;;12.18;5.32;;;;;;;;;;4771722;30;20052;-75
2022/09/14 05:54:50;;;;;;;20.77;6.00;;;;;;;;;;4771838;30;20083;-75
2022/09/14 05:57:16;;;;;;;12.65;6.00;;;;;;;;;;4771634;30;20128;-75
2022/09/14 05:59:42;;;;;;;21.35;7.75;;;;;;;;;;4771810;30;20067;-75
2022/09/14 06:02:09;;;;;;;15.52;6.93;;;;;;;;;;4771842;30;20089;-75
2022/09/14 06:04:36;;;;;;;7.95;5.00;;;;;;;;;;4771761;30;20501;-75
2022/09/14 06:07:02;;;;;;;9.48;4.95;;;;;;;;;;4771616;30;20046;-75
2022/09/14 06:09:28;;;;;;;10.88;5.15;;;;;;;;;;4771794;30;20102;-75
2022/09/14 06:11:54;;;;;;;10.95;4.85;;;;;;;;;;4771789;30;20075;-73
2022/09/14 06:14:20;;;;;;;14.27;5.22;;;;;;;;;;4771520;30;20058;-73
2022/09/14 06:16:46;;;;;;;14.82;4.93;;;;;;;;;;4771377;30;20036;-73
2022/09/14 06:19:14;;;;;;;11.93;5.30;;;;;;;;;;4770758;30;20054;-74
2022/09/14 06:21:40;;;;;;;12.82;5.25;;;;;;;;;;4771595;30;20055;-73
2022/09/14 06:24:06;;;;;;;14.32;4.75;;;;;;;;;;4771311;30;20161;-73
2022/09/14 06:26:33;;;;;;;17.05;5.25;;;;;;;;;;4771303;30;20044;-73
2022/09/14 06:28:59;;;;;;;14.43;5.65;;;;;;;;;;4771603;30;20096;-73
2022/09/14 06:31:25;;;;;;;13.98;6.03;;;;;;;;;;4771541;30;20086;-73
2022/09/14 06:33:52;;;;;;;13.80;5.15;;;;;;;;;;4771898;30;20051;-73
2022/09/14 06:36:19;;;;;;;7.00;4.43;;;;;;;;;;4771584;30;20200;-74
2022/09/14 06:38:47;;;;;;;12.63;4.15;;;;;;;;;;4769991;30;20047;-73
2022/09/14 06:41:16;;;;;;;13.20;4.78;;;;;;;;;;4771629;30;20087;-73
2022/09/14 06:43:43;;;;;;;10.73;4.20;;;;;;;;;;4771555;30;20058;-73
2022/09/14 06:46:15;;;;;;;11.73;4.28;;;;;;;;;;4770401;30;20527;-73
2022/09/14 06:48:43;;;;;;;10.32;3.72;;;;;;;;;;4770365;30;20047;-74
2022/09/14 06:51:17;;;;;;;12.73;4.25;;;;;;;;;;4771044;30;20046;-72
2022/09/14 06:53:43;;;;;;;14.65;3.78;;;;;;;;;;4770821;30;20048;-73
2022/09/14 06:56:10;;;;;;;9.50;3.30;;;;;;;;;;4771230;30;20052;-73
2022/09/14 06:58:36;;;;;;;9.23;3.53;;;;;;;;;;4774703;30;20396;-72
2022/09/14 07:01:06;;;;;;;9.85;3.00;;;;;;;;;;4774706;30;20044;-73
2022/09/14 07:03:35;;;;;;;5.28;2.28;;;;;;;;;;4774426;30;20047;-73
2022/09/14 07:06:09;;;;;;;9.70;2.35;;;;;;;;;;4774606;30;20051;-73
2022/09/14 07:08:36;;;;;;;7.72;2.03;;;;;;;;;;4774451;30;20039;-73
2022/09/14 07:11:03;;;;;;;11.55;2.67;;;;;;;;;;4774323;30;20492;-73
2022/09/14 07:13:29;;;;;;;9.05;2.60;;;;;;;;;;4774593;30;20118;-73
2022/09/14 07:15:55;;;;;;;7.43;2.30;;;;;;;;;;4774421;30;20060;-73
2022/09/14 07:18:27;;;;;;;8.48;2.63;;;;;;;;;;4774508;30;20048;-73
2022/09/14 07:20:54;;;;;;;9.52;2.20;;;;;;;;;;4774544;30;20044;-73
2022/09/14 07:23:20;;;;;;;12.52;2.95;;;;;;;;;;4774100;30;20496;-73
2022/09/14 07:25:46;;;;;;;11.40;2.85;;;;;;;;;;4774044;30;20522;-73
2022/09/14 07:28:12;;;;;;;7.35;2.45;;;;;;;;;;4774612;30;20067;-73
2022/09/14 07:30:40;;;;;;;10.88;3.45;;;;;;;;;;4773983;30;20051;-73
2022/09/14 07:33:06;;;;;;;9.52;2.70;;;;;;;;;;4774569;30;20052;-73
2022/09/14 07:35:33;;;;;;;7.30;2.70;;;;;;;;;;4774186;30;20082;-73
2022/09/14 07:38:00;;;;;;;9.95;2.83;;;;;;;;;;4773824;30;20043;-73
2022/09/14 07:40:26;;;;;;;10.05;2.88;;;;;;;;;;4773854;30;20050;-73
2022/09/14 07:42:53;;;;;;;10.30;2.75;;;;;;;;;;4774673;30;20159;-73
2022/09/14 07:45:19;;;;;;;8.60;3.08;;;;;;;;;;4774029;30;20059;-73
2022/09/14 07:47:46;;;;;;;8.00;2.60;;;;;;;;;;4773433;30;20047;-73
2022/09/14 07:50:12;;;;;;;7.82;2.47;;;;;;;;;;4773480;30;20477;-73
2022/09/14 07:52:39;;;;;;;13.13;2.90;;;;;;;;;;4774003;30;20083;-73
2022/09/14 07:55:06;;;;;;;7.45;2.15;;;;;;;;;;4772059;30;20135;-73
2022/09/14 07:57:32;;;;;;;4.53;2.17;;;;;;;;;;4772645;30;20047;-72
2022/09/14 07:59:58;;;;;;;5.45;2.30;;;;;;;;;;4771979;30;20052;-73
2022/09/14 08:02:27;;;;;;;12.02;2.25;;;;;;;;;;4772129;30;20083;-73
2022/09/14 08:04:54;;;;;;;7.30;2.17;;;;;;;;;;4773339;30;20054;-72
2022/09/14 08:07:21;;;;;;;4.55;2.38;;;;;;;;;;4772894;30;20096;-73
2022/09/14 08:09:47;;;;;;;9.05;2.00;;;;;;;;;;4771680;30;20054;-73
2022/09/14 08:12:15;;;;;;;6.30;1.90;;;;;;;;;;4772819;30;20055;-73
2022/09/14 08:14:41;;;;;;;8.63;2.70;;;;;;;;;;4772893;30;20496;-73
2022/09/14 08:17:09;;;;;;;12.50;2.50;;;;;;;;;;4770981;30;20432;-73
2022/09/14 08:19:36;;;;;;;10.68;2.28;;;;;;;;;;4773112;30;20067;-73
2022/09/14 08:22:03;;;;;;;9.90;2.92;;;;;;;;;;4772544;30;20527;-73
2022/09/14 08:24:29;;;;;;;10.00;2.53;;;;;;;;;;4773078;30;20052;-73
2022/09/14 08:26:56;;;;;;;11.85;2.65;;;;;;;;;;4772836;30;20058;-73
2022/09/14 08:29:22;;;;;;;10.40;2.60;;;;;;;;;;4771610;30;20131;-73
2022/09/14 08:31:50;;;;;;;10.82;2.22;;;;;;;;;;4772635;30;20124;-73
2022/09/14 08:34:17;;;;;;;9.50;2.35;;;;;;;;;;4772554;30;20046;-73
2022/09/14 08:36:44;;;;;;;5.80;1.95;;;;;;;;;;4772197;30;20071;-73
2022/09/14 08:39:11;;;;;;;13.45;2.55;;;;;;;;;;4770058;30;20035;-73
2022/09/14 08:41:46;;;;;;;7.15;2.20;;;;;;;;;;4771048;30;20057;-73
2022/09/14 08:44:12;;;;;;;8.70;2.17;;;;;;;;;;4769043;30;20036;-73
2022/09/14 08:46:40;;;;;;;12.93;2.60;;;;;;;;;;4771310;30;20424;-73
2022/09/14 08:49:12;;;;;;;9.30;2.45;;;;;;;;;;4771138;30;20043;-73
2022/09/14 08:51:38;;;;;;;5.28;1.83;;;;;;;;;;4771131;30;20059;-73
2022/09/14 08:54:05;;;;;;;9.35;2.50;;;;;;;;;;4771417;30;20556;-73
2022/09/14 08:56:32;;;;;;;8.40;2.60;;;;;;;;;;4772481;30;20054;-73
2022/09/14 08:59:10;;;;;;;6.38;2.03;;;;;;;;;;4772482;30;20039;-73
2022/09/14 09:01:37;;;;;;;10.02;2.10;;;;;;;;;;4771037;30;20047;-72
2022/09/14 09:04:16;;;;;;;10.35;2.38;;;;;;;;;;4771318;30;20527;-72
2022/09/14 09:06:42;;;;;;;8.70;2.55;;;;;;;;;;4771664;30;20043;-72
2022/09/14 09:09:27;;;;;;;11.63;2.40;;;;;;;;;;4771146;30;20526;-72
2022/09/14 09:11:53;;;;;;;9.57;2.30;;;;;;;;;;4754579;30;20059;-72
2022/09/14 09:14:25;;;;;;;11.52;2.78;;;;;;;;;;4760619;30;20123;-72
2022/09/14 09:16:54;;;;;;;12.40;2.85;;;;;;;;;;4771965;30;20055;-72
2022/09/14 09:19:26;;;;;;;9.80;2.00;;;;;;;;;;4771671;30;20043;-72
2022/09/14 09:21:53;;;;;;;7.13;2.13;;;;;;;;;;4771365;30;20058;-72
2022/09/14 09:24:25;;;;;;;14.75;2.60;;;;;;;;;;4772104;30;20105;-73
2022/09/14 09:26:51;;;;;;;8.45;2.75;;;;;;;;;;4771148;30;20074;-73
2022/09/14 09:29:18;;;;;;;9.35;2.30;;;;;;;;;;4770497;30;20401;-73
2022/09/14 09:31:46;;;;;;;6.80;2.92;;;;;;;;;;4770048;30;20101;-73
2022/09/14 09:34:16;;;;;;;8.63;2.58;;;;;;;;;;4771566;30;20051;-73
2022/09/14 09:36:45;;;;;;;8.30;2.55;;;;;;;;;;4770828;30;20075;-73
2022/09/14 09:39:11;;;;;;;11.02;2.10;;;;;;;;;;4771614;30;20051;-73
2022/09/14 09:41:43;;;;;;;6.00;2.10;;;;;;;;;;4771072;30;20044;-73
2022/09/14 09:44:09;;;;;;;7.75;2.45;;;;;;;;;;4770680;30;20055;-73
2022/09/14 09:46:44;;;;;;;11.23;2.58;;;;;;;;;;4772589;30;20040;-73
2022/09/14 09:49:18;;;;;;;6.22;2.13;;;;;;;;;;4769711;30;20075;-73
2022/09/14 09:51:44;;;;;;;10.25;2.63;;;;;;;;;;4768810;30;20059;-73
2022/09/14 09:54:14;;;;;;;8.75;2.60;;;;;;;;;;4771171;30;20048;-73
2022/09/14 09:56:51;;;;;;;7.38;2.28;;;;;;;;;;4771930;30;20079;-72
2022/09/14 09:59:28;;;;;;;10.73;2.45;;;;;;;;;;4771328;30;20086;-72
2022/09/14 10:01:56;;;;;;;9.73;2.35;;;;;;;;;;4770900;30;20043;-72
2022/09/14 10:04:26;;;;;;;10.13;2.60;;;;;;;;;;4770237;30;20044;-72
2022/09/14 10:06:53;;;;;;;;;;;;;;;;;;4771816;30;20044;-72
2022/09/14 10:09:24;;;;;;;7.55;2.50;;;;;;;;;;4771805;30;20005;-72
2022/09/14 10:12:03;;;;;;;8.20;2.38;;;;;;;;;;4771065;30;20114;-73
2022/09/14 10:14:33;;;;;;;7.22;2.38;;;;;;;;;;4770697;30;20055;-72
2022/09/14 10:17:18;;;;;;;5.43;2.42;;;;;;;;;;4771219;30;20058;-72
2022/09/14 10:19:52;;;;;;;8.07;2.70;;;;;;;;;;4770665;30;20043;-71
2022/09/14 10:22:35;;;;;;;8.32;2.40;;;;;;;;;;4771552;30;20052;-73
2022/09/14 10:25:02;;;;;;;8.93;2.58;;;;;;;;;;4770721;30;20079;-73
2022/09/14 10:27:30;;;;;;;10.10;2.60;;;;;;;;;;4769381;30;20052;-70
2022/09/14 10:29:57;;;;;;;14.02;2.85;;;;;;;;;;4771179;30;20073;-70
2022/09/14 10:32:24;;;;;;;10.50;2.40;;;;;;;;;;4773578;30;20074;-71
2022/09/14 10:34:50;;;;;;;12.40;2.92;;;;;;;;;;4774254;30;20496;-71
2022/09/14 10:37:23;;;;;;;9.52;2.50;;;;;;;;;;4774951;30;20055;-73
2022/09/14 10:39:58;;;;;;;12.02;2.88;;;;;;;;;;4774425;30;20103;-75
2022/09/14 10:42:37;;;;;;;12.20;3.20;;;;;;;;;;4775493;30;20044;-74
2022/09/14 10:45:22;;;;;;;8.98;2.42;;;;;;;;;;4773864;30;20056;-74
2022/09/14 10:48:12;;;;;;;10.70;2.63;;;;;;;;;;4773503;30;20508;-73
2022/09/14 10:50:49;;;;;;;8.60;2.88;;;;;;;;;;4756518;30;20657;-73
2022/09/14 10:53:27;;;;;;;8.75;2.60;;;;;;;;;;4757054;30;20131;-79
2022/09/14 10:56:00;;;;;;;11.68;2.83;;;;;;;;;;4769185;30;20052;-79
2022/09/14 10:58:38;;;;;;;14.02;2.50;;;;;;;;;;4773361;30;20071;-79
2022/09/14 11:01:16;;;;;;;14.10;3.22;;;;;;;;;;4774530;30;20086;-76
2022/09/14 11:03:42;;;;;;;11.27;2.60;;;;;;;;;;4774780;30;20059;-79
2022/09/14 11:06:31;;;;;;;8.07;2.50;;;;;;;;;;4773767;30;20040;-82
2022/09/14 11:09:02;;;;;;;6.68;2.60;;;;;;;;;;4762791;29;20492;-81
2022/09/14 11:11:32;;;;;;;8.43;2.67;;;;;;;;;;4773946;30;20512;-76
2022/09/14 11:14:04;;;;;;;8.10;2.40;;;;;;;;;;4773803;30;20044;-77
2022/09/14 11:16:30;;;;;;;8.50;2.42;;;;;;;;;;4772957;30;20075;-77
2022/09/14 11:19:02;;;;;;;9.27;2.92;;;;;;;;;;4773594;30;20420;-77
2022/09/14 11:21:40;;;;;;;12.20;3.05;;;;;;;;;;4772829;30;20075;-86
2022/09/14 11:24:19;;;;;;;10.75;2.65;;;;;;;;;;4773033;30;20048;-85
2022/09/14 11:27:03;;;;;;;9.07;2.60;;;;;;;;;;4787613;30;20089;-86
2022/09/14 11:29:51;;;;;;;8.60;2.45;;;;;;;;;;4772826;30;20039;-86
2022/09/14 11:32:24;;;;;;;11.45;2.42;;;;;;;;;;4772108;30;20046;-85
2022/09/14 11:34:55;;;;;;;8.75;2.60;;;;;;;;;;4765407;29;20048;-80
2022/09/14 11:37:25;;;;;;;12.45;2.95;;;;;;;;;;4764025;30;20066;-80
2022/09/14 11:39:58;;;;;;;9.13;2.75;;;;;;;;;;4772903;30;20512;-80
2022/09/14 11:42:37;;;;;;;6.88;2.50;;;;;;;;;;4773055;30;20055;-80
2022/09/14 11:45:13;;;;;;;6.15;2.10;;;;;;;;;;4772298;30;20532;-78
2022/09/14 11:47:42;;;;;;;9.48;2.33;;;;;;;;;;4770397;30;20040;-79
2022/09/14 11:50:29;;;;;;;6.35;2.45;;;;;;;;;;4773186;30;20076;-77
2022/09/14 11:53:12;;;;;;;9.77;2.08;;;;;;;;;;4773489;30;20051;-79
2022/09/14 11:55:42;;;;;;;7.53;1.98;;;;;;;;;;4773374;30;20079;-79
2022/09/14 11:58:14;;;;;;;10.98;2.55;;;;;;;;;;4773364;30;20451;-79
2022/09/14 12:00:43;;;;;;;9.15;2.35;;;;;;;;;;4773253;30;20048;-78
2022/09/14 12:03:20;;;;;;;9.77;2.33;;;;;;;;;;4773417;30;20106;-80
2022/09/14 12:05:47;;;;;;;8.23;2.53;;;;;;;;;;4773334;30;20055;-80
2022/09/14 12:08:28;;;;;;;7.25;1.90;;;;;;;;;;4771907;30;20075;-80
2022/09/14 12:11:22;;;;;;;7.40;2.20;;;;;;;;;;4773597;30;20056;-80
2022/09/14 12:13:48;;;;;;;9.07;2.10;;;;;;;;;;4773989;30;20075;-80
2022/09/14 12:16:14;;;;;;;6.15;2.35;;;;;;;;;;4772400;30;20090;-80
2022/09/14 12:18:43;;;;;;;10.32;2.55;;;;;;;;;;4772790;30;20497;-80
2022/09/14 12:21:21;;;;;;;12.25;2.20;;;;;;;;;;4773285;30;20056;-84
2022/09/14 12:23:51;;;;;;;12.60;2.95;;;;;;;;;;4772670;30;20040;-78
2022/09/14 12:26:17;;;;;;;12.38;2.55;;;;;;;;;;4771844;30;20043;-76
2022/09/14 12:28:49;;;;;;;16.45;2.88;;;;;;;;;;4772055;30;20052;-78
2022/09/14 12:31:34;;;;;;;10.90;2.30;;;;;;;;;;4772369;30;20059;-78
2022/09/14 12:34:14;;;;;;;7.43;2.05;;;;;;;;;;4767553;30;20047;-82
2022/09/14 12:36:41;;;;;;;12.68;2.63;;;;;;;;;;4789179;29;20420;-83
2022/09/14 12:39:22;;;;;;;8.98;2.35;;;;;;;;;;4773633;30;20515;-81
2022/09/14 12:41:48;;;;;;;11.10;2.42;;;;;;;;;;4772440;30;20039;-80
2022/09/14 12:44:33;;;;;;;12.20;2.55;;;;;;;;;;4772465;30;20047;-80
2022/09/14 12:47:18;;;;;;;12.75;2.88;;;;;;;;;;4773130;30;20039;-80
2022/09/14 12:49:44;;;;;;;12.82;2.30;;;;;;;;;;4772685;30;20043;-80
2022/09/14 12:52:18;;;;;;;16.52;3.05;;;;;;;;;;4771894;30;20481;-80
2022/09/14 12:54:44;;;;;;;14.45;2.75;;;;;;;;;;4771972;30;20138;-80
2022/09/14 12:57:30;;;;;;;13.63;2.85;;;;;;;;;;4771823;30;20047;-80
2022/09/14 13:00:10;;;;;;;12.68;2.70;;;;;;;;;;4761173;30;20052;-80
2022/09/14 13:02:36;;;;;;;17.13;2.75;;;;;;;;;;4772432;30;20500;-80
2022/09/14 13:05:07;;;;;;;21.23;3.42;;;;;;;;;;4771746;30;20112;-81
2022/09/14 13:07:35;;;;;;;13.68;2.50;;;;;;;;;;4771851;30;20050;-79
2022/09/14 13:10:02;;;;;;;11.77;3.13;;;;;;;;;;4769824;30;20424;-81
2022/09/14 13:12:34;;;;;;;11.73;2.63;;;;;;;;;;4770043;30;20071;-81
2022/09/14 13:15:06;;;;;;;14.63;3.33;;;;;;;;;;4770680;30;20130;-81
2022/09/14 13:17:32;;;;;;;16.20;3.60;;;;;;;;;;4771015;30;20101;-80
2022/09/14 13:20:04;;;;;;;12.77;3.17;;;;;;;;;;4771491;30;20048;-80
2022/09/14 13:22:32;;;;;;;11.55;2.50;;;;;;;;;;4770181;30;20104;-81
2022/09/14 13:25:00;;;;;;;13.65;3.17;;;;;;;;;;4767140;30;20119;-80
2022/09/14 13:27:36;;;;;;;16.83;3.08;;;;;;;;;;4770005;30;20138;-80
2022/09/14 13:30:11;;;;;;;17.25;4.00;;;;;;;;;;4769399;30;20047;-81
2022/09/14 13:32:42;;;;;;;14.93;2.83;;;;;;;;;;4771609;30;20126;-80
2022/09/14 13:35:16;;;;;;;18.45;4.03;;;;;;;;;;4770610;30;20412;-81
2022/09/14 13:37:42;;;;;;;13.93;3.42;;;;;;;;;;4770609;30;20117;-81
2022/09/14 13:40:08;;;;;;;11.38;3.20;;;;;;;;;;4769109;30;20043;-82
2022/09/14 13:42:35;;;;;;;13.63;3.35;;;;;;;;;;4770790;30;20046;-82
2022/09/14 13:45:01;;;;;;;15.15;2.70;;;;;;;;;;4779407;30;20063;-78
2022/09/14 13:47:27;;;;;;;18.90;2.90;;;;;;;;;;4769532;30;20043;-78
2022/09/14 13:49:54;;;;;;;15.57;3.08;;;;;;;;;;4770470;30;20117;-78
2022/09/14 13:52:27;;;;;;;12.10;3.08;;;;;;;;;;4770822;30;20048;-77
2022/09/14 13:54:55;;;;;;;11.32;3.03;;;;;;;;;;4769067;30;20118;-77
2022/09/14 13:57:23;;;;;;;13.02;2.40;;;;;;;;;;4770904;30;20101;-77
2022/09/14 14:00:07;;;;;;;21.40;3.30;;;;;;;;;;4770485;30;20043;-77
2022/09/14 14:02:34;;;;;;;15.18;3.65;;;;;;;;;;4770664;30;20051;-73
2022/09/14 14:05:01;;;;;;;17.05;3.30;;;;;;;;;;4770351;30;20047;-73
2022/09/14 14:07:34;;;;;;;13.70;3.38;;;;;;;;;;4767923;30;20515;-73
2022/09/14 14:10:02;;;;;;;16.55;3.30;;;;;;;;;;4770104;30;20066;-73
2022/09/14 14:12:36;;;;;;;14.60;3.33;;;;;;;;;;4770331;30;20051;-74
2022/09/14 14:15:09;;;;;;;10.80;3.00;;;;;;;;;;4770323;30;20143;-73
2022/09/14 14:17:36;;;;;;;12.98;3.13;;;;;;;;;;4770473;30;20134;-73
2022/09/14 14:20:21;;;;;;;16.25;3.03;;;;;;;;;;4770163;30;20050;-73
2022/09/14 14:23:05;;;;;;;15.07;3.85;;;;;;;;;;4769840;30;20047;-73
2022/09/14 14:25:33;;;;;;;12.85;3.03;;;;;;;;;;4770366;30;20051;-73
2022/09/14 14:28:04;;;;;;;15.35;3.28;;;;;;;;;;4770515;30;20047;-73
2022/09/14 14:30:33;;;;;;;15.20;3.45;;;;;;;;;;4770214;30;20051;-73
2022/09/14 14:33:00;;;;;;;13.40;3.28;;;;;;;;;;4770192;30;20071;-73
2022/09/14 14:35:30;;;;;;;17.65;3.65;;;;;;;;;;4769862;30;20058;-73
2022/09/14 14:37:56;;;;;;;17.90;3.28;;;;;;;;;;4769725;30;20138;-73
2022/09/14 14:40:25;;;;;;;16.67;3.10;;;;;;;;;;4769926;30;20044;-73
2022/09/14 14:42:51;;;;;;;14.93;3.45;;;;;;;;;;4769623;30;20067;-73
2022/09/14 14:45:19;;;;;;;18.15;3.33;;;;;;;;;;4727582;30;1287995;-73
2022/09/14 14:47:46;;;;;;;11.32;2.85;;;;;;;;;;4770481;30;20056;-73